Arthur, Tennessee
Current Conditions -  °F | °C
As of 3:55 PM on Tuesday 27 Jan 2015 (Local Time) from K1A6 Reporting Station
Overcast Overcast  
Wind Chill: 26°   Ceiling: 2300
Heat Index: 32°   Visibility: 10mi
Dew Point: 25°   Wind: 6mph
Humidity: 75%   Direction: 350°N
Pressure: 30.03"   Gusts: NA
Location:  36.55°N, 83.67°W
Report Text: K1A6 272055Z AUTO 35005KT 10SM OVC023 00/M04 A3003 RMK AO2 T00001039
Loading
Personal Weather Stations






























Interactive Weather Map New forecast layout! Learn more

10-Day Weather Forecast

Advertisements
Track Severe Weather on mobile